Time;durP1;ratioP1;P1;durP2;ratioP2;P2;SDS_P1;SDS_P2;PMS_P1;PMS_P2;Temp;Humidity;BMP_temperature;BMP_pressure;BME280_temperature;BME280_humidity;BME280_pressure;Samples;Min_cycle;Max_cycle;Signal;HPM_P1;HPM_P2
2022/03/02 00:00:06;;;;;;;26.38;16.88;;;5.80;99.90;;;;;;5073497;28;20048;-66
2022/03/02 00:02:32;;;;;;;27.45;15.52;;;5.80;99.90;;;;;;5072505;28;20049;-66
2022/03/02 00:04:58;;;;;;;30.92;17.55;;;5.90;99.90;;;;;;5074373;28;20036;-66
2022/03/02 00:07:24;;;;;;;27.02;17.25;;;5.80;99.90;;;;;;5073571;28;20492;-66
2022/03/02 00:09:50;;;;;;;26.85;16.73;;;5.70;99.90;;;;;;5073542;28;20083;-66
2022/03/02 00:12:16;;;;;;;29.55;16.80;;;5.70;99.90;;;;;;5073305;28;20433;-66
2022/03/02 00:14:42;;;;;;;30.58;16.85;;;5.80;99.90;;;;;;5073431;28;20119;-66
2022/03/02 00:17:08;;;;;;;27.52;16.88;;;5.80;99.90;;;;;;5073991;28;20127;-66
2022/03/02 00:19:34;;;;;;;28.10;17.10;;;5.80;99.90;;;;;;5073451;28;20124;-65
2022/03/02 00:21:59;;;;;;;26.77;17.27;;;5.70;99.90;;;;;;5073426;28;20044;-66
2022/03/02 00:24:25;;;;;;;28.58;16.67;;;5.70;99.90;;;;;;5074202;28;20040;-65
2022/03/02 00:26:51;;;;;;;30.55;18.85;;;5.60;99.90;;;;;;5073715;28;20396;-66
2022/03/02 00:29:17;;;;;;;30.23;17.75;;;5.60;99.90;;;;;;5073379;28;20052;-66
2022/03/02 00:31:43;;;;;;;27.63;16.65;;;5.70;99.90;;;;;;5072050;28;20048;-66
2022/03/02 00:34:09;;;;;;;30.08;17.40;;;5.70;99.90;;;;;;5073216;28;20059;-66
2022/03/02 00:36:35;;;;;;;28.77;17.05;;;5.60;99.90;;;;;;5073311;28;20064;-66
2022/03/02 00:39:01;;;;;;;29.70;17.48;;;5.70;99.90;;;;;;5073270;28;20040;-66
2022/03/02 00:41:27;;;;;;;28.27;16.83;;;5.70;99.90;;;;;;5073801;28;20131;-66
2022/03/02 00:43:53;;;;;;;28.65;17.30;;;5.30;99.90;;;;;;5073218;28;20127;-66
2022/03/02 00:46:20;;;;;;;29.33;17.63;;;5.90;99.90;;;;;;5073736;28;20048;-66
2022/03/02 00:48:46;;;;;;;30.23;18.55;;;5.60;99.90;;;;;;5055503;28;20090;-66
2022/03/02 00:51:12;;;;;;;31.83;18.88;;;5.60;99.90;;;;;;5073144;28;20091;-66
2022/03/02 00:53:38;;;;;;;27.10;17.65;;;5.60;99.90;;;;;;5071894;28;20041;-66
2022/03/02 00:56:04;;;;;;;29.50;17.73;;;5.60;99.90;;;;;;5073056;28;20131;-66
2022/03/02 00:58:30;;;;;;;28.58;18.40;;;5.60;99.90;;;;;;5073241;28;20052;-65
2022/03/02 01:00:56;;;;;;;30.95;19.42;;;5.80;99.90;;;;;;5073045;28;20045;-66
2022/03/02 01:03:22;;;;;;;31.33;18.35;;;6.00;99.90;;;;;;5072526;28;20539;-66
2022/03/02 01:05:48;;;;;;;29.77;18.58;;;5.60;99.90;;;;;;5073037;28;20048;-66
2022/03/02 01:08:13;;;;;;;31.17;18.33;;;5.50;99.90;;;;;;5072652;28;20084;-66
2022/03/02 01:10:39;;;;;;;29.95;18.52;;;5.60;99.90;;;;;;5075774;28;20040;-66
2022/03/02 01:13:05;;;;;;;30.35;18.38;;;5.50;99.90;;;;;;5076639;28;20048;-66
2022/03/02 01:15:31;;;;;;;33.33;18.08;;;5.50;99.90;;;;;;5076821;28;20052;-66
2022/03/02 01:17:56;;;;;;;32.58;18.92;;;5.90;99.90;;;;;;5076565;28;20450;-66
2022/03/02 01:20:22;;;;;;;31.52;19.02;;;5.70;99.90;;;;;;5075288;28;20067;-66
2022/03/02 01:22:48;;;;;;;31.00;18.58;;;5.50;99.90;;;;;;5076545;28;20127;-66
2022/03/02 01:25:14;;;;;;;28.17;18.60;;;5.50;99.90;;;;;;5077290;28;20040;-66
2022/03/02 01:27:40;;;;;;;27.45;17.70;;;5.50;99.90;;;;;;5075195;28;20569;-66
2022/03/02 01:30:07;;;;;;;31.35;18.75;;;5.50;99.90;;;;;;5075655;28;20051;-66
2022/03/02 01:32:33;;;;;;;31.88;18.95;;;5.50;99.90;;;;;;5075274;28;20048;-66
2022/03/02 01:34:59;;;;;;;31.52;18.70;;;6.00;99.90;;;;;;5076451;28;20043;-66
2022/03/02 01:37:25;;;;;;;29.42;18.15;;;5.60;99.90;;;;;;5074994;28;20078;-66
2022/03/02 01:39:51;;;;;;;31.45;19.02;;;5.50;99.90;;;;;;5075041;28;20102;-66
2022/03/02 01:42:16;;;;;;;31.83;20.48;;;5.50;99.90;;;;;;5076145;28;20052;-66
2022/03/02 01:44:42;;;;;;;30.23;17.90;;;5.50;99.90;;;;;;5076120;28;20048;-66
2022/03/02 01:47:08;;;;;;;29.52;18.40;;;5.50;99.90;;;;;;5075823;28;20101;-66
2022/03/02 01:49:34;;;;;;;29.40;18.60;;;5.70;99.90;;;;;;5074825;28;20049;-66
2022/03/02 01:52:01;;;;;;;35.08;20.10;;;5.50;99.90;;;;;;5059236;28;20048;-66
2022/03/02 01:54:26;;;;;;;30.02;18.85;;;5.50;99.90;;;;;;5058402;28;20044;-66
2022/03/02 01:56:53;;;;;;;32.53;19.65;;;5.30;99.90;;;;;;5075611;28;20186;-66
2022/03/02 01:59:19;;;;;;;34.60;20.08;;;5.50;99.90;;;;;;5075839;28;20098;-66
2022/03/02 02:01:45;;;;;;;34.00;20.67;;;6.00;99.90;;;;;;5075653;28;20052;-66
2022/03/02 02:04:11;;;;;;;30.05;18.90;;;5.40;99.90;;;;;;5075749;28;20094;-66
2022/03/02 02:06:37;;;;;;;29.42;18.92;;;5.50;99.90;;;;;;5075057;28;20048;-66
2022/03/02 02:09:06;;;;;;;32.15;19.40;;;5.40;99.90;;;;;;5075710;28;20075;-66
2022/03/02 02:11:32;;;;;;;32.67;19.98;;;5.60;99.90;;;;;;5075198;28;20388;-66
2022/03/02 02:13:58;;;;;;;32.80;19.10;;;5.40;99.90;;;;;;5075491;28;20076;-66
2022/03/02 02:16:24;;;;;;;30.92;19.23;;;5.80;99.90;;;;;;5075223;28;20535;-66
2022/03/02 02:18:50;;;;;;;32.92;19.58;;;5.20;99.90;;;;;;5076089;28;20500;-66
2022/03/02 02:21:18;;;;;;;33.50;19.92;;;5.50;99.90;;;;;;5073857;28;20198;-66
2022/03/02 02:23:44;;;;;;;28.60;18.40;;;5.50;99.90;;;;;;5075333;28;20048;-66
2022/03/02 02:26:09;;;;;;;34.42;19.17;;;5.40;99.90;;;;;;5074631;28;20127;-66
2022/03/02 02:28:36;;;;;;;33.53;19.60;;;5.40;99.90;;;;;;5075258;28;20053;-66
2022/03/02 02:31:03;;;;;;;33.65;19.67;;;5.30;99.90;;;;;;5075237;28;20131;-66
2022/03/02 02:33:29;;;;;;;33.17;19.98;;;5.40;99.90;;;;;;5075083;28;20480;-66
2022/03/02 02:35:56;;;;;;;31.33;19.00;;;5.30;99.90;;;;;;5075027;28;20135;-66
2022/03/02 02:38:22;;;;;;;35.08;20.23;;;5.30;99.90;;;;;;5074896;28;20051;-66
2022/03/02 02:40:52;;;;;;;31.98;19.48;;;5.40;99.90;;;;;;5075305;28;20048;-66
2022/03/02 02:43:21;;;;;;;34.78;19.58;;;5.30;99.90;;;;;;5057112;28;20040;-66
2022/03/02 02:45:46;;;;;;;33.70;20.42;;;5.70;99.90;;;;;;5073676;28;20054;-66
2022/03/02 02:48:12;;;;;;;31.58;19.20;;;5.90;99.90;;;;;;5073592;28;20044;-66
2022/03/02 02:50:39;;;;;;;33.65;20.80;;;5.20;99.90;;;;;;5073684;28;20067;-66
2022/03/02 02:53:09;;;;;;;29.35;19.38;;;5.40;99.90;;;;;;5074787;28;20102;-66
2022/03/02 02:55:36;;;;;;;34.08;20.13;;;5.50;99.90;;;;;;5074766;28;20048;-66
2022/03/02 02:58:02;;;;;;;31.58;19.92;;;6.00;99.90;;;;;;5074031;28;20514;-66
2022/03/02 03:00:31;;;;;;;31.38;20.38;;;5.10;99.90;;;;;;5074685;28;20059;-66
2022/03/02 03:02:58;;;;;;;30.77;19.60;;;5.20;99.90;;;;;;5074777;28;20155;-66
2022/03/02 03:05:25;;;;;;;32.13;19.92;;;5.10;99.90;;;;;;5074834;28;20044;-66
2022/03/02 03:07:52;;;;;;;34.22;19.73;;;5.00;99.90;;;;;;5074546;28;20049;-66
2022/03/02 03:10:18;;;;;;;33.38;19.40;;;5.40;99.90;;;;;;5074438;28;20098;-66
2022/03/02 03:12:45;;;;;;;34.72;20.98;;;4.90;99.90;;;;;;5073273;28;20044;-66
2022/03/02 03:15:13;;;;;;;34.45;20.40;;;5.30;99.90;;;;;;5074024;28;20119;-66
2022/03/02 03:17:39;;;;;;;35.42;20.52;;;4.90;99.90;;;;;;5074345;28;20061;-66
2022/03/02 03:20:08;;;;;;;31.50;19.02;;;4.80;99.90;;;;;;5074534;28;20164;-66
2022/03/02 03:22:35;;;;;;;34.90;20.27;;;4.80;99.90;;;;;;5073208;28;20209;-66
2022/03/02 03:25:02;;;;;;;32.47;19.58;;;5.90;99.90;;;;;;5074188;28;20106;-66
2022/03/02 03:27:28;;;;;;;32.90;20.52;;;4.70;99.90;;;;;;5072964;28;20044;-66
2022/03/02 03:29:54;;;;;;;31.23;19.33;;;4.70;99.90;;;;;;5072779;28;20065;-66
2022/03/02 03:32:19;;;;;;;31.75;19.83;;;5.00;99.90;;;;;;5072920;28;20056;-66
2022/03/02 03:34:46;;;;;;;34.95;20.55;;;4.70;99.90;;;;;;5072810;28;20041;-66
2022/03/02 03:37:12;;;;;;;35.60;21.05;;;4.90;99.90;;;;;;5073977;28;20053;-66
2022/03/02 03:39:38;;;;;;;32.42;20.95;;;4.60;99.90;;;;;;5073933;28;20060;-66
2022/03/02 03:42:04;;;;;;;31.85;21.30;;;4.50;99.90;;;;;;5073965;28;20041;-67
2022/03/02 03:44:30;;;;;;;32.58;21.20;;;4.40;99.90;;;;;;5074092;28;20052;-67
2022/03/02 03:46:56;;;;;;;33.88;20.35;;;4.60;99.90;;;;;;5073810;28;20484;-67
2022/03/02 03:49:21;;;;;;;31.80;20.40;;;4.70;99.90;;;;;;5073841;28;20044;-67
2022/03/02 03:51:47;;;;;;;34.03;21.33;;;4.20;99.90;;;;;;5074323;28;20044;-66
2022/03/02 03:54:13;;;;;;;35.15;20.65;;;4.30;99.90;;;;;;5073983;28;20384;-66
2022/03/02 03:56:39;;;;;;;34.33;19.75;;;4.40;99.90;;;;;;5072480;28;20055;-66
2022/03/02 03:59:07;;;;;;;33.80;20.90;;;4.20;99.90;;;;;;5073845;28;20403;-65
2022/03/02 04:01:34;;;;;;;37.88;21.00;;;4.90;99.90;;;;;;5073659;28;20408;-66
2022/03/02 04:04:00;;;;;;;31.77;20.95;;;4.10;99.90;;;;;;5072384;28;20041;-66
2022/03/02 04:06:26;;;;;;;36.45;21.60;;;4.40;99.90;;;;;;5073589;28;20393;-66
2022/03/02 04:08:51;;;;;;;35.17;21.17;;;4.20;99.90;;;;;;5072343;28;20043;-66
2022/03/02 04:11:18;;;;;;;34.20;21.48;;;4.10;99.90;;;;;;5072584;28;20049;-66
2022/03/02 04:13:43;;;;;;;37.28;21.65;;;4.00;99.90;;;;;;5073472;28;20044;-66
2022/03/02 04:16:09;;;;;;;35.55;21.17;;;4.40;99.90;;;;;;5074328;28;20124;-66
2022/03/02 04:18:35;;;;;;;34.03;22.67;;;3.80;99.90;;;;;;5074259;28;20469;-66
2022/03/02 04:21:01;;;;;;;36.03;21.65;;;4.50;99.90;;;;;;5073725;28;20439;-66
2022/03/02 04:23:27;;;;;;;39.88;22.23;;;5.00;99.90;;;;;;5073952;28;20044;-66
2022/03/02 04:25:53;;;;;;;37.03;21.65;;;3.80;99.90;;;;;;5073193;28;20044;-66
2022/03/02 04:28:19;;;;;;;37.97;22.15;;;3.90;99.90;;;;;;5073042;28;20101;-66
2022/03/02 04:30:45;;;;;;;32.65;20.95;;;3.80;99.90;;;;;;5072407;28;20044;-66
2022/03/02 04:33:12;;;;;;;34.40;21.80;;;4.40;99.90;;;;;;5073808;28;20044;-66
2022/03/02 04:35:38;;;;;;;34.30;20.58;;;3.70;99.90;;;;;;5071761;28;20078;-66
2022/03/02 04:38:05;;;;;;;36.08;21.67;;;3.70;99.90;;;;;;5072973;28;20439;-66
2022/03/02 04:40:31;;;;;;;37.90;21.00;;;4.00;99.90;;;;;;5072959;28;20054;-66
2022/03/02 04:42:57;;;;;;;32.42;20.85;;;3.70;99.90;;;;;;5073077;28;20041;-66
2022/03/02 04:45:30;;;;;;;36.85;21.83;;;4.60;99.90;;;;;;5074871;28;20045;-66
2022/03/02 04:47:57;;;;;;;35.17;22.08;;;4.10;99.90;;;;;;5076914;28;20047;-66
2022/03/02 04:50:23;;;;;;;34.65;21.25;;;4.30;99.90;;;;;;5075941;28;20055;-66
2022/03/02 04:52:50;;;;;;;37.55;21.48;;;4.10;99.90;;;;;;5076897;28;20354;-66
2022/03/02 04:55:17;;;;;;;35.17;21.45;;;3.50;99.90;;;;;;5076617;28;20506;-66
2022/03/02 04:57:49;;;;;;;36.53;21.45;;;3.50;99.90;;;;;;5076819;28;20443;-65
2022/03/02 05:00:25;;;;;;;34.20;21.92;;;3.50;99.90;;;;;;5076994;28;20049;-66
2022/03/02 05:02:51;;;;;;;33.17;20.55;;;3.40;99.90;;;;;;5076863;28;20044;-66
2022/03/02 05:05:21;;;;;;;37.42;22.38;;;3.40;99.90;;;;;;5075892;28;20056;-66
2022/03/02 05:07:47;;;;;;;35.35;22.02;;;3.50;99.90;;;;;;5076741;28;20052;-65
2022/03/02 05:10:15;;;;;;;37.03;22.08;;;3.40;99.90;;;;;;5076943;28;20530;-66
2022/03/02 05:12:41;;;;;;;34.30;21.80;;;4.20;99.90;;;;;;5075501;28;20088;-66
2022/03/02 05:15:09;;;;;;;36.95;22.73;;;3.40;99.90;;;;;;5075384;28;20087;-66
2022/03/02 05:17:35;;;;;;;34.22;20.45;;;3.40;99.90;;;;;;5076637;28;20040;-66
2022/03/02 05:20:02;;;;;;;35.05;21.92;;;3.90;99.90;;;;;;5076554;28;20045;-66
2022/03/02 05:22:28;;;;;;;34.90;21.90;;;3.30;99.90;;;;;;5075031;28;20128;-65
2022/03/02 05:24:54;;;;;;;33.35;21.70;;;3.20;99.90;;;;;;5076087;28;20123;-65
2022/03/02 05:27:20;;;;;;;37.83;21.80;;;3.50;99.90;;;;;;5076711;28;20468;-65
2022/03/02 05:29:45;;;;;;;33.25;21.85;;;3.30;99.90;;;;;;5058546;28;20547;-66
2022/03/02 05:32:11;;;;;;;37.58;21.90;;;3.70;99.90;;;;;;5042051;28;20491;-65
2022/03/02 05:34:37;;;;;;;37.13;23.10;;;3.20;99.90;;;;;;5076580;28;20079;-66
2022/03/02 05:37:03;;;;;;;34.58;21.70;;;3.30;99.90;;;;;;5075342;28;20083;-66
2022/03/02 05:39:29;;;;;;;37.90;22.02;;;3.20;99.90;;;;;;5075233;28;20485;-66
2022/03/02 05:41:55;;;;;;;36.35;22.08;;;3.30;99.90;;;;;;5076458;28;20404;-66
2022/03/02 05:44:21;;;;;;;32.33;21.50;;;3.00;99.90;;;;;;5075128;28;20052;-66
2022/03/02 05:46:48;;;;;;;36.78;21.73;;;3.90;99.90;;;;;;5076054;28;20045;-65
2022/03/02 05:49:15;;;;;;;34.33;21.42;;;3.50;99.90;;;;;;5076054;28;20131;-66
2022/03/02 05:51:41;;;;;;;36.05;21.63;;;3.40;99.90;;;;;;5074845;28;20052;-66
2022/03/02 05:54:08;;;;;;;33.15;20.98;;;3.20;99.90;;;;;;5075177;28;20052;-66
2022/03/02 05:56:37;;;;;;;38.53;22.52;;;3.20;99.90;;;;;;5075519;28;20072;-66
2022/03/02 05:59:08;;;;;;;35.08;21.25;;;3.70;99.90;;;;;;5076157;28;20053;-65
2022/03/02 06:01:34;;;;;;;35.60;22.75;;;3.00;99.90;;;;;;5074706;28;20059;-65
2022/03/02 06:04:01;;;;;;;36.13;21.83;;;3.10;99.90;;;;;;5076195;28;20086;-66
2022/03/02 06:06:29;;;;;;;36.55;21.25;;;3.60;99.90;;;;;;5075763;28;20057;-66
2022/03/02 06:08:55;;;;;;;35.47;21.13;;;3.10;99.90;;;;;;5074264;28;20457;-66
2022/03/02 06:11:22;;;;;;;37.22;22.70;;;2.90;99.90;;;;;;5076182;28;20366;-66
2022/03/02 06:13:48;;;;;;;34.15;22.90;;;3.00;99.90;;;;;;5057639;28;20047;-66
2022/03/02 06:16:14;;;;;;;37.58;22.95;;;3.00;99.90;;;;;;5075780;28;20045;-66
2022/03/02 06:18:41;;;;;;;34.63;21.67;;;3.00;99.90;;;;;;5075464;28;20051;-66
2022/03/02 06:21:07;;;;;;;33.58;21.70;;;3.00;99.90;;;;;;5075280;28;20048;-66
2022/03/02 06:23:33;;;;;;;38.30;22.85;;;2.90;99.90;;;;;;5075405;28;20098;-66
2022/03/02 06:25:59;;;;;;;33.92;21.80;;;2.90;99.90;;;;;;5074173;28;20041;-66
2022/03/02 06:28:26;;;;;;;38.08;22.05;;;3.00;99.90;;;;;;5074110;28;20049;-66
2022/03/02 06:30:52;;;;;;;39.95;21.10;;;2.90;99.90;;;;;;5074030;28;20084;-65
2022/03/02 06:33:19;;;;;;;33.05;20.45;;;2.80;99.90;;;;;;5075042;28;20045;-65
2022/03/02 06:35:49;;;;;;;40.63;22.88;;;3.20;99.90;;;;;;5075104;28;20084;-66
2022/03/02 06:38:15;;;;;;;39.08;22.00;;;3.40;99.90;;;;;;5075130;28;20404;-66
2022/03/02 06:40:50;;;;;;;36.45;21.85;;;3.80;99.90;;;;;;5057143;28;20052;-66
2022/03/02 06:43:19;;;;;;;36.78;21.52;;;2.90;99.90;;;;;;5075017;28;20084;-65
2022/03/02 06:45:50;;;;;;;38.80;23.63;;;4.30;99.90;;;;;;5075797;28;20041;-65
2022/03/02 06:48:30;;;;;;;33.08;21.00;;;2.90;99.90;;;;;;5074834;28;20048;-66
2022/03/02 06:50:59;;;;;;;37.58;20.85;;;3.00;99.90;;;;;;5074595;28;20084;-66
2022/03/02 06:53:36;;;;;;;35.85;22.75;;;3.60;99.90;;;;;;5075069;28;20113;-65
2022/03/02 06:56:10;;;;;;;36.42;21.70;;;2.90;99.90;;;;;;5075355;28;20047;-66
2022/03/02 06:58:48;;;;;;;32.88;20.75;;;2.90;99.90;;;;;;5074240;28;20059;-65
2022/03/02 07:01:27;;;;;;;34.63;20.52;;;2.90;99.90;;;;;;5073977;28;20067;-65
2022/03/02 07:03:57;;;;;;;40.40;22.52;;;3.70;99.90;;;;;;5074551;28;20041;-66
2022/03/02 07:06:23;;;;;;;36.50;21.55;;;3.60;99.90;;;;;;5073524;28;20056;-66
2022/03/02 07:08:49;;;;;;;38.00;21.85;;;3.10;99.90;;;;;;5074180;28;20489;-66
2022/03/02 07:11:16;;;;;;;35.88;22.00;;;2.90;99.90;;;;;;5074395;28;20095;-65
2022/03/02 07:13:46;;;;;;;35.50;20.85;;;3.00;99.90;;;;;;5074092;28;20477;-65
2022/03/02 07:16:13;;;;;;;37.72;22.23;;;3.60;99.90;;;;;;5074611;28;20500;-65
2022/03/02 07:18:39;;;;;;;38.42;21.17;;;3.10;99.90;;;;;;5074246;28;20123;-66
2022/03/02 07:21:14;;;;;;;35.97;20.15;;;3.10;99.90;;;;;;5074289;28;20045;-65
2022/03/02 07:23:46;;;;;;;34.17;20.58;;;3.00;99.90;;;;;;5073929;28;20080;-65
2022/03/02 07:26:16;;;;;;;31.83;20.20;;;3.00;99.90;;;;;;5074232;28;20464;-65
2022/03/02 07:28:46;;;;;;;34.95;20.38;;;3.80;99.90;;;;;;5074389;28;20128;-65
2022/03/02 07:31:13;;;;;;;34.58;20.92;;;4.00;99.90;;;;;;5073408;28;20041;-66
2022/03/02 07:33:42;;;;;;;32.20;20.02;;;3.10;99.90;;;;;;5073973;28;20048;-66
2022/03/02 07:36:10;;;;;;;36.92;21.27;;;3.00;99.90;;;;;;5072958;28;20127;-65
2022/03/02 07:38:36;;;;;;;38.15;21.15;;;3.10;99.90;;;;;;5073895;28;20052;-65
2022/03/02 07:41:08;;;;;;;34.63;20.52;;;3.50;99.90;;;;;;5073898;28;20056;-65
2022/03/02 07:43:36;;;;;;;36.08;20.05;;;3.20;99.90;;;;;;5073866;28;20059;-66
2022/03/02 07:46:05;;;;;;;30.75;19.83;;;3.20;99.90;;;;;;5073904;28;20076;-66
2022/03/02 07:48:31;;;;;;;33.67;20.25;;;3.40;99.90;;;;;;5073778;28;20040;-66
2022/03/02 07:50:58;;;;;;;33.47;19.23;;;3.60;99.90;;;;;;5055832;28;20048;-66
2022/03/02 07:53:29;;;;;;;32.97;20.45;;;4.00;99.90;;;;;;5072759;28;20088;-66
2022/03/02 07:55:55;;;;;;;31.83;20.15;;;4.30;99.90;;;;;;5074169;28;20477;-65
2022/03/02 07:58:23;;;;;;;32.63;19.77;;;3.30;99.90;;;;;;5073720;28;20108;-66
2022/03/02 08:00:53;;;;;;;30.52;19.42;;;3.80;99.90;;;;;;5073673;28;20044;-66
2022/03/02 08:03:22;;;;;;;32.20;20.40;;;3.70;99.90;;;;;;5073319;28;20566;-65
2022/03/02 08:05:48;;;;;;;35.35;21.10;;;3.40;99.90;;;;;;5072612;28;20091;-66
2022/03/02 08:08:15;;;;;;;30.33;19.48;;;3.40;99.90;;;;;;5072426;28;20075;-65
2022/03/02 08:10:42;;;;;;;32.28;20.05;;;3.40;99.90;;;;;;5073502;28;20052;-65
2022/03/02 08:13:11;;;;;;;35.47;21.30;;;3.60;99.90;;;;;;5072529;28;20048;-65
2022/03/02 08:15:38;;;;;;;35.53;19.88;;;3.30;99.90;;;;;;5073382;28;20397;-66
2022/03/02 08:18:05;;;;;;;30.83;19.58;;;4.20;99.90;;;;;;5072313;28;20041;-66
2022/03/02 08:20:32;;;;;;;34.22;20.88;;;3.50;99.90;;;;;;5072761;28;20084;-66
2022/03/02 08:23:01;;;;;;;30.92;19.23;;;3.60;99.90;;;;;;5073408;28;20041;-65
2022/03/02 08:25:29;;;;;;;31.90;20.10;;;3.60;99.90;;;;;;5072203;28;20047;-66
2022/03/02 08:27:57;;;;;;;31.10;20.38;;;3.90;99.90;;;;;;5073446;28;20079;-65
2022/03/02 08:30:23;;;;;;;33.17;18.67;;;3.70;99.90;;;;;;5073366;28;20084;-65
2022/03/02 08:32:50;;;;;;;35.08;19.83;;;3.70;99.90;;;;;;5073211;28;20084;-65
2022/03/02 08:35:16;;;;;;;34.38;19.33;;;3.80;99.90;;;;;;5072019;28;20050;-65
2022/03/02 08:37:42;;;;;;;31.88;18.38;;;4.60;99.90;;;;;;5073373;28;20434;-66
2022/03/02 08:40:09;;;;;;;34.53;19.40;;;3.80;99.90;;;;;;5073455;28;20047;-65
2022/03/02 08:42:35;;;;;;;30.63;19.23;;;4.00;99.90;;;;;;5073027;28;20084;-67
2022/03/02 08:45:02;;;;;;;33.88;19.60;;;4.10;99.90;;;;;;5073468;28;20441;-66
2022/03/02 08:47:28;;;;;;;31.13;19.58;;;4.10;99.90;;;;;;5073331;28;20088;-66
2022/03/02 08:49:54;;;;;;;29.90;17.35;;;4.80;99.90;;;;;;5073807;28;20080;-66
2022/03/02 08:52:26;;;;;;;29.95;17.77;;;4.20;99.90;;;;;;5074023;28;20044;-65
2022/03/02 08:54:53;;;;;;;34.13;18.63;;;4.90;99.90;;;;;;5072617;28;20032;-65
2022/03/02 08:57:21;;;;;;;30.23;17.83;;;4.40;99.90;;;;;;5073140;28;20056;-66
2022/03/02 08:59:53;;;;;;;31.25;18.98;;;4.30;99.90;;;;;;5073466;28;20377;-66
2022/03/02 09:02:29;;;;;;;27.10;16.40;;;4.50;99.90;;;;;;5073199;28;20053;-65
2022/03/02 09:05:00;;;;;;;30.38;18.10;;;4.40;99.90;;;;;;5073229;28;20472;-65
2022/03/02 09:07:26;;;;;;;32.70;18.20;;;4.50;99.90;;;;;;5072594;28;20088;-66
2022/03/02 09:09:52;;;;;;;28.55;17.20;;;4.50;99.90;;;;;;5072805;28;20530;-66
2022/03/02 09:12:18;;;;;;;29.40;17.10;;;4.70;99.90;;;;;;5073119;28;20047;-66
2022/03/02 09:14:44;;;;;;;29.77;17.25;;;4.60;99.90;;;;;;5055677;28;20040;-66
2022/03/02 09:17:10;;;;;;;29.63;17.13;;;4.70;99.90;;;;;;5073128;28;20048;-66
2022/03/02 09:19:36;;;;;;;30.48;17.15;;;4.80;99.90;;;;;;5073063;28;20048;-65
2022/03/02 09:22:04;;;;;;;27.98;17.30;;;4.80;99.90;;;;;;5073105;28;20041;-65
2022/03/02 09:24:31;;;;;;;30.08;18.05;;;4.80;99.90;;;;;;5072785;28;20044;-66
2022/03/02 09:27:02;;;;;;;28.45;16.33;;;4.90;99.90;;;;;;5072832;28;20128;-65
2022/03/02 09:29:30;;;;;;;29.40;17.90;;;5.00;99.90;;;;;;5072967;28;20048;-66
2022/03/02 09:31:57;;;;;;;27.65;16.00;;;5.10;99.90;;;;;;5075501;28;20052;-65
2022/03/02 09:34:29;;;;;;;27.00;16.75;;;5.60;99.90;;;;;;5077293;28;20356;-66
2022/03/02 09:36:59;;;;;;;32.92;18.15;;;5.90;99.90;;;;;;5076749;28;20059;-66
2022/03/02 09:39:25;;;;;;;32.65;16.85;;;5.20;99.90;;;;;;5076462;28;20530;-66
2022/03/02 09:42:05;;;;;;;30.45;17.85;;;5.60;99.90;;;;;;5077206;28;20052;-66
2022/03/02 09:44:46;;;;;;;25.60;15.77;;;5.30;99.90;;;;;;5076147;28;20049;-65
2022/03/02 09:47:18;;;;;;;28.08;16.00;;;5.30;99.90;;;;;;5076255;28;20102;-65
2022/03/02 09:49:57;;;;;;;28.27;17.40;;;5.50;99.90;;;;;;5076212;28;20052;-65
2022/03/02 09:52:24;;;;;;;28.98;15.85;;;6.00;99.90;;;;;;5076220;28;20048;-65
2022/03/02 09:54:57;;;;;;;26.13;16.65;;;5.50;99.90;;;;;;5076095;28;20036;-65
2022/03/02 09:57:23;;;;;;;29.33;16.05;;;5.70;99.90;;;;;;5076676;28;20052;-65
2022/03/02 09:59:54;;;;;;;28.02;16.08;;;5.60;99.90;;;;;;5075909;28;20113;-65
2022/03/02 10:02:41;;;;;;;23.73;15.38;;;5.60;99.90;;;;;;5076759;28;20040;-65
2022/03/02 10:05:12;;;;;;;26.17;15.80;;;5.90;99.90;;;;;;5075930;28;20063;-65
2022/03/02 10:07:45;;;;;;;25.38;14.40;;;5.90;99.90;;;;;;5075530;28;20630;-65
2022/03/02 10:10:14;;;;;;;25.80;15.88;;;5.80;99.90;;;;;;5075195;28;20048;-65
2022/03/02 10:12:40;;;;;;;28.65;15.75;;;5.90;99.90;;;;;;5075733;28;20080;-65
2022/03/02 10:15:12;;;;;;;25.80;14.88;;;6.00;99.90;;;;;;5057677;28;20052;-66
2022/03/02 10:17:41;;;;;;;22.52;14.02;;;6.10;99.90;;;;;;5074807;28;20056;-66
2022/03/02 10:20:10;;;;;;;25.13;15.55;;;6.20;99.90;;;;;;5075043;28;20064;-67
2022/03/02 10:23:07;;;;;;;26.55;15.35;;;6.10;99.90;;;;;;5074915;28;20076;-66
2022/03/02 10:25:51;;;;;;;24.23;15.10;;;6.00;99.90;;;;;;5057255;28;20060;-67
2022/03/02 10:28:25;;;;;;;27.45;15.52;;;6.10;99.90;;;;;;5073482;28;20059;-67
2022/03/02 10:31:21;;;;;;;23.15;13.55;;;6.30;99.90;;;;;;5074727;28;20040;-66
2022/03/02 10:33:54;;;;;;;24.00;14.75;;;6.30;99.90;;;;;;5074278;28;20080;-66
2022/03/02 10:36:24;;;;;;;24.42;14.88;;;6.30;99.90;;;;;;5074941;28;20078;-66
2022/03/02 10:38:50;;;;;;;21.02;13.73;;;6.40;99.90;;;;;;5075130;28;20080;-66
2022/03/02 10:41:20;;;;;;;23.05;13.45;;;6.40;99.90;;;;;;5073993;28;20499;-66
2022/03/02 10:43:59;;;;;;;21.58;13.35;;;6.40;99.90;;;;;;5072992;28;20052;-66
2022/03/02 10:46:26;;;;;;;21.52;13.43;;;6.50;99.90;;;;;;5075150;28;20049;-66
2022/03/02 10:49:07;;;;;;;22.25;12.95;;;6.50;99.90;;;;;;5073138;28;20131;-65
2022/03/02 10:51:34;;;;;;;24.08;14.63;;;6.60;99.90;;;;;;5074840;28;20131;-66
2022/03/02 10:54:06;;;;;;;22.33;13.57;;;6.60;99.90;;;;;;5074414;28;20090;-65
2022/03/02 10:56:38;;;;;;;21.25;13.45;;;6.60;99.90;;;;;;5056492;28;20094;-66
2022/03/02 10:59:08;;;;;;;21.83;13.47;;;6.90;99.90;;;;;;5073981;28;20068;-66
2022/03/02 11:01:36;;;;;;;21.13;13.32;;;6.70;99.90;;;;;;5072712;28;20048;-66
2022/03/02 11:04:05;;;;;;;19.85;13.05;;;6.70;99.90;;;;;;5056176;28;20052;-66
2022/03/02 11:06:31;;;;;;;21.40;13.05;;;6.80;99.90;;;;;;5073107;28;20446;-66
2022/03/02 11:09:00;;;;;;;23.08;13.60;;;6.80;99.90;;;;;;5057195;28;20450;-66
2022/03/02 11:11:26;;;;;;;21.85;13.20;;;6.90;99.90;;;;;;5073897;28;20087;-66
2022/03/02 11:13:54;;;;;;;21.65;13.60;;;7.20;99.90;;;;;;5073918;28;20056;-66
2022/03/02 11:16:21;;;;;;;20.73;13.48;;;7.00;99.90;;;;;;5072791;28;20044;-66
2022/03/02 11:18:52;;;;;;;22.20;12.75;;;7.10;99.90;;;;;;5072151;28;20044;-66
2022/03/02 11:21:28;;;;;;;20.70;12.43;;;7.30;99.90;;;;;;5073891;28;20060;-66
2022/03/02 11:24:01;;;;;;;19.40;12.70;;;7.10;99.90;;;;;;5074462;28;20044;-66
2022/03/02 11:26:32;;;;;;;20.67;12.95;;;7.20;99.90;;;;;;5072375;28;20040;-66
2022/03/02 11:29:14;;;;;;;20.95;13.00;;;7.30;99.90;;;;;;5073945;28;20400;-66
2022/03/02 11:31:44;;;;;;;21.17;12.80;;;7.20;99.90;;;;;;5073242;28;20079;-66
2022/03/02 11:34:26;;;;;;;20.02;12.95;;;7.30;99.90;;;;;;5074243;28;20045;-64
2022/03/02 11:37:00;;;;;;;20.23;13.25;;;7.30;99.90;;;;;;5074213;28;20082;-66
2022/03/02 11:39:28;;;;;;;20.55;11.48;;;7.40;99.90;;;;;;5072527;28;20060;-66
2022/03/02 11:42:04;;;;;;;18.58;11.30;;;7.40;99.90;;;;;;5073327;28;20079;-65
2022/03/02 11:44:34;;;;;;;20.25;12.70;;;7.50;99.90;;;;;;5073546;28;20374;-66
2022/03/02 11:47:07;;;;;;;22.30;13.00;;;7.50;99.90;;;;;;5073572;28;20124;-66
2022/03/02 11:49:39;;;;;;;18.42;12.07;;;7.60;99.90;;;;;;5073463;28;20480;-66
2022/03/02 11:52:06;;;;;;;18.25;11.70;;;7.60;99.90;;;;;;5073235;28;20053;-66
2022/03/02 11:54:45;;;;;;;18.60;11.73;;;7.70;99.90;;;;;;5072716;28;20032;-66
2022/03/02 11:57:13;;;;;;;19.80;12.70;;;7.70;99.90;;;;;;5073420;28;20140;-66
2022/03/02 11:59:39;;;;;;;18.88;11.88;;;7.50;99.90;;;;;;5073112;28;20071;-66
2022/03/02 12:02:15;;;;;;;21.75;13.00;;;7.80;99.90;;;;;;5072970;28;20562;-66
2022/03/02 12:05:04;;;;;;;18.45;12.25;;;8.00;99.90;;;;;;5071760;28;20182;-66
2022/03/02 12:07:47;;;;;;;17.33;11.27;;;7.90;99.90;;;;;;5072986;28;20045;-66
2022/03/02 12:10:28;;;;;;;20.90;12.38;;;7.90;99.90;;;;;;5072085;28;20059;-66
2022/03/02 12:12:57;;;;;;;17.52;10.98;;;7.90;99.90;;;;;;5071764;28;20078;-66
2022/03/02 12:15:40;;;;;;;17.50;11.40;;;8.00;99.90;;;;;;5072632;28;20045;-66
2022/03/02 12:18:07;;;;;;;;;;;8.00;99.90;;;;;;5073019;28;20365;-66
2022/03/02 12:20:34;;;;;;;18.33;11.43;;;8.00;99.90;;;;;;5072075;28;19920;-66
2022/03/02 12:23:00;;;;;;;20.23;11.98;;;8.00;99.90;;;;;;5072762;28;20051;-66
2022/03/02 12:25:28;;;;;;;16.92;11.70;;;8.10;99.90;;;;;;5072199;28;20072;-66
2022/03/02 12:27:57;;;;;;;18.38;11.88;;;8.10;99.90;;;;;;5071493;28;20127;-66
2022/03/02 12:30:24;;;;;;;20.48;12.00;;;8.10;99.90;;;;;;5073940;28;20088;-66
2022/03/02 12:32:53;;;;;;;19.70;10.95;;;8.10;99.90;;;;;;5072307;28;20388;-66
2022/03/02 12:35:22;;;;;;;17.88;11.00;;;8.20;99.90;;;;;;5072493;28;20033;-66
2022/03/02 12:37:48;;;;;;;19.17;11.95;;;8.50;99.90;;;;;;5073042;28;20049;-66
2022/03/02 12:40:14;;;;;;;17.48;11.07;;;8.30;99.90;;;;;;5071591;28;20045;-66
2022/03/02 12:42:43;;;;;;;20.95;11.77;;;8.30;99.90;;;;;;5072587;28;20048;-66